Time;durP1;ratioP1;P1;durP2;ratioP2;P2;SDS_P1;SDS_P2;PMS_P1;PMS_P2;Temp;Humidity;BMP_temperature;BMP_pressure;BME280_temperature;BME280_humidity;BME280_pressure;Samples;Min_cycle;Max_cycle;Signal;HPM_P1;HPM_P2
2021/05/30 00:01:22;;;;;;;40.23;17.47;;;15.60;52.30;;;;;;5009039;28;20456;-81
2021/05/30 00:03:50;;;;;;;28.87;16.50;;;15.60;52.10;;;;;;5008914;28;20448;-81
2021/05/30 00:06:25;;;;;;;26.60;16.53;;;15.60;52.60;;;;;;5009790;28;20464;-81
2021/05/30 00:08:56;;;;;;;32.60;16.57;;;15.60;52.80;;;;;;5021313;28;20509;-81
2021/05/30 00:11:23;;;;;;;27.30;16.03;;;15.50;52.60;;;;;;5033166;28;20459;-81
2021/05/30 00:14:07;;;;;;;28.30;16.10;;;15.50;52.20;;;;;;5036800;28;20469;-81
2021/05/30 00:16:35;;;;;;;31.03;16.37;;;15.40;52.90;;;;;;5047768;28;20508;-81
2021/05/30 00:19:03;;;;;;;29.60;15.97;;;15.40;52.70;;;;;;5028453;28;20554;-81
2021/05/30 00:21:32;;;;;;;23.27;15.37;;;15.40;53.10;;;;;;5028505;28;20501;-81
2021/05/30 00:23:59;;;;;;;31.43;15.80;;;15.30;53.00;;;;;;5031707;28;20462;-81
2021/05/30 00:26:27;;;;;;;25.83;16.00;;;15.30;53.00;;;;;;5028600;28;20448;-81
2021/05/30 00:28:55;;;;;;;27.00;15.97;;;15.30;53.00;;;;;;5028558;28;20505;-81
2021/05/30 00:31:22;;;;;;;28.93;16.63;;;15.30;53.00;;;;;;5028521;28;20500;-81
2021/05/30 00:33:51;;;;;;;33.30;16.60;;;15.20;53.00;;;;;;5028529;28;20526;-81
2021/05/30 00:36:20;;;;;;;27.80;16.50;;;15.20;53.40;;;;;;5029117;28;20459;-81
2021/05/30 00:38:49;;;;;;;29.30;16.40;;;15.30;53.40;;;;;;5028726;28;20423;-81
2021/05/30 00:41:16;;;;;;;28.23;16.20;;;15.20;53.20;;;;;;5028801;28;20439;-80
2021/05/30 00:43:44;;;;;;;27.00;15.80;;;15.30;53.20;;;;;;5028706;28;20444;-81
2021/05/30 00:46:12;;;;;;;27.43;15.80;;;15.20;52.90;;;;;;5031265;28;20491;-82
2021/05/30 00:48:39;;;;;;;25.80;15.57;;;15.10;53.60;;;;;;5031457;28;21065;-81
2021/05/30 00:51:08;;;;;;;27.80;16.47;;;15.00;53.60;;;;;;5031873;28;20443;-81
2021/05/30 00:53:35;;;;;;;30.07;15.17;;;14.90;52.80;;;;;;5032543;28;20439;-81
2021/05/30 00:56:04;;;;;;;25.77;16.70;;;14.90;53.90;;;;;;5031406;28;20503;-81
2021/05/30 00:58:31;;;;;;;24.47;15.77;;;14.90;54.00;;;;;;5031345;28;20470;-81
2021/05/30 01:00:59;;;;;;;27.57;14.93;;;14.90;53.70;;;;;;5031524;28;20463;-80
2021/05/30 01:03:26;;;;;;;30.60;15.03;;;14.90;53.70;;;;;;5032719;28;20447;-81
2021/05/30 01:05:54;;;;;;;24.07;14.77;;;15.00;53.70;;;;;;5052163;28;20489;-80
2021/05/30 01:08:26;;;;;;;27.20;15.80;;;14.90;53.60;;;;;;5051703;28;20525;-80
2021/05/30 01:10:56;;;;;;;27.57;15.77;;;14.90;53.20;;;;;;5051861;28;20508;-80
2021/05/30 01:13:24;;;;;;;24.90;16.03;;;14.80;53.60;;;;;;5041556;28;20481;-80
2021/05/30 01:15:51;;;;;;;25.43;15.03;;;14.80;53.80;;;;;;5032006;28;20518;-81
2021/05/30 01:18:20;;;;;;;22.67;14.67;;;14.80;54.00;;;;;;5032011;28;20448;-81
2021/05/30 01:20:48;;;;;;;25.83;15.97;;;14.80;53.70;;;;;;5031465;28;20526;-81
2021/05/30 01:23:18;;;;;;;23.87;14.70;;;14.80;53.60;;;;;;5031587;28;20519;-81
2021/05/30 01:25:45;;;;;;;28.67;15.90;;;14.80;53.80;;;;;;5031614;28;20424;-82
2021/05/30 01:28:13;;;;;;;26.33;15.27;;;14.70;53.70;;;;;;5031033;28;20606;-83
2021/05/30 01:30:40;;;;;;;28.70;15.93;;;14.70;53.80;;;;;;5026210;28;20511;-83
2021/05/30 01:33:07;;;;;;;34.93;16.33;;;14.70;53.70;;;;;;5031128;28;20435;-83
2021/05/30 01:35:35;;;;;;;24.33;15.40;;;14.80;53.40;;;;;;5030299;28;20519;-81
2021/05/30 01:38:03;;;;;;;26.77;14.90;;;14.60;53.70;;;;;;5030594;28;20473;-81
2021/05/30 01:40:31;;;;;;;24.53;15.50;;;14.70;53.80;;;;;;5047257;28;20450;-81
2021/05/30 01:42:59;;;;;;;25.67;15.63;;;14.60;53.70;;;;;;5048655;28;20463;-81
2021/05/30 01:45:28;;;;;;;26.63;15.30;;;14.60;53.70;;;;;;5049636;28;20442;-80
2021/05/30 01:47:56;;;;;;;22.90;15.07;;;14.50;53.80;;;;;;5035668;28;20475;-80
2021/05/30 01:50:24;;;;;;;32.60;16.83;;;14.60;53.70;;;;;;5029447;28;20471;-81
2021/05/30 01:52:52;;;;;;;31.37;16.13;;;14.50;53.30;;;;;;5029644;28;20471;-80
2021/05/30 01:55:23;;;;;;;25.93;15.73;;;14.40;53.70;;;;;;5029151;28;20479;-80
2021/05/30 01:57:53;;;;;;;31.67;16.00;;;14.40;53.70;;;;;;5028175;28;20547;-80
2021/05/30 02:00:21;;;;;;;26.90;14.90;;;14.30;54.10;;;;;;5028457;28;20450;-82
2021/05/30 02:02:49;;;;;;;26.43;15.57;;;14.30;54.00;;;;;;5029036;28;20486;-80
2021/05/30 02:05:17;;;;;;;28.03;14.27;;;14.20;54.40;;;;;;5028149;28;20448;-80
2021/05/30 02:07:44;;;;;;;27.33;14.77;;;14.30;54.40;;;;;;5028447;28;20508;-80
2021/05/30 02:10:12;;;;;;;23.27;14.43;;;14.20;53.80;;;;;;5028186;28;20527;-81
2021/05/30 02:12:40;;;;;;;20.83;13.03;;;14.20;54.50;;;;;;5028610;28;20490;-81
2021/05/30 02:15:10;;;;;;;25.00;14.67;;;14.10;54.50;;;;;;5034455;28;20593;-81
2021/05/30 02:17:37;;;;;;;21.37;14.97;;;14.10;54.50;;;;;;5048459;28;20464;-81
2021/05/30 02:20:06;;;;;;;19.23;13.63;;;14.20;54.00;;;;;;5049388;28;20489;-81
2021/05/30 02:22:34;;;;;;;22.50;13.83;;;14.20;54.20;;;;;;5049224;28;20446;-81
2021/05/30 02:25:01;;;;;;;22.80;14.93;;;14.10;54.10;;;;;;5047508;28;20510;-80
2021/05/30 02:27:29;;;;;;;27.27;14.83;;;14.10;53.90;;;;;;5048545;28;20485;-81
2021/05/30 02:29:56;;;;;;;22.87;13.23;;;13.90;54.70;;;;;;5048436;28;20446;-81
2021/05/30 02:32:24;;;;;;;24.57;14.60;;;13.90;54.80;;;;;;5049719;28;20509;-81
2021/05/30 02:34:52;;;;;;;25.93;15.47;;;14.00;54.80;;;;;;5040281;28;20439;-81
2021/05/30 02:37:20;;;;;;;22.03;14.40;;;14.00;54.50;;;;;;5029945;28;20447;-81
2021/05/30 02:39:47;;;;;;;24.00;14.67;;;14.10;54.30;;;;;;5029210;28;20502;-81
2021/05/30 02:42:15;;;;;;;24.67;14.00;;;14.00;54.20;;;;;;5029262;28;20479;-83
2021/05/30 02:44:42;;;;;;;21.80;14.40;;;14.00;54.50;;;;;;5028953;28;20458;-81
2021/05/30 02:47:10;;;;;;;21.37;13.87;;;14.00;54.30;;;;;;5031549;28;20524;-81
2021/05/30 02:49:39;;;;;;;26.70;14.63;;;14.00;54.40;;;;;;5048974;28;20455;-81
2021/05/30 02:52:06;;;;;;;24.63;15.20;;;13.90;54.40;;;;;;5047796;28;20442;-81
2021/05/30 02:54:34;;;;;;;25.37;14.33;;;13.90;54.50;;;;;;5047600;28;20434;-81
2021/05/30 02:57:02;;;;;;;25.20;14.53;;;13.90;54.60;;;;;;5029038;28;20439;-82
2021/05/30 02:59:32;;;;;;;17.70;12.53;;;13.90;54.80;;;;;;5028701;28;20451;-81
2021/05/30 03:02:00;;;;;;;19.83;13.60;;;13.90;54.40;;;;;;5028949;28;20477;-84
2021/05/30 03:04:28;;;;;;;22.43;13.80;;;13.90;54.30;;;;;;5044728;28;20462;-82
2021/05/30 03:06:56;;;;;;;21.87;14.27;;;13.90;54.40;;;;;;5047817;28;20482;-81
2021/05/30 03:09:26;;;;;;;20.10;13.60;;;13.90;54.30;;;;;;5048958;28;20442;-81
2021/05/30 03:11:54;;;;;;;21.73;13.20;;;13.80;54.80;;;;;;5048404;28;20419;-82
2021/05/30 03:14:21;;;;;;;24.43;13.37;;;13.80;54.60;;;;;;5045940;28;20426;-82
2021/05/30 03:16:49;;;;;;;18.47;13.00;;;13.80;54.50;;;;;;5047073;28;20516;-81
2021/05/30 03:19:18;;;;;;;23.40;13.40;;;13.80;54.50;;;;;;5048175;28;20522;-81
2021/05/30 03:21:45;;;;;;;30.73;13.40;;;13.80;54.30;;;;;;5048299;28;20466;-81
2021/05/30 03:24:13;;;;;;;20.20;13.30;;;13.90;54.50;;;;;;5048899;28;20447;-81
2021/05/30 03:26:41;;;;;;;25.93;14.70;;;13.80;54.50;;;;;;5048692;28;20482;-81
2021/05/30 03:29:08;;;;;;;24.40;14.60;;;13.80;54.30;;;;;;5048915;28;20439;-81
2021/05/30 03:31:36;;;;;;;24.83;13.90;;;13.80;54.50;;;;;;5048679;28;20511;-81
2021/05/30 03:34:04;;;;;;;29.93;14.53;;;13.80;54.60;;;;;;5049036;28;20472;-81
2021/05/30 03:36:32;;;;;;;22.77;14.07;;;13.80;54.80;;;;;;5048771;28;20442;-80
2021/05/30 03:39:02;;;;;;;28.67;14.27;;;13.80;54.60;;;;;;5049142;28;20426;-80
2021/05/30 03:41:36;;;;;;;22.37;14.67;;;13.80;54.60;;;;;;5049307;28;20430;-80
2021/05/30 03:44:04;;;;;;;20.93;12.77;;;13.80;54.50;;;;;;5049052;28;20549;-84
2021/05/30 03:46:32;;;;;;;24.70;14.57;;;13.70;54.90;;;;;;5048716;28;20540;-80
2021/05/30 03:48:59;;;;;;;19.43;13.07;;;13.70;54.50;;;;;;5049172;28;20435;-80
2021/05/30 03:51:27;;;;;;;25.90;13.77;;;13.70;54.90;;;;;;5048762;28;20505;-81
2021/05/30 03:53:55;;;;;;;24.60;14.50;;;13.70;54.90;;;;;;5049002;28;20435;-81
2021/05/30 03:56:23;;;;;;;22.53;13.90;;;13.70;54.90;;;;;;5048777;28;20461;-81
2021/05/30 03:58:51;;;;;;;25.13;14.80;;;13.70;55.10;;;;;;5048562;28;20493;-80
2021/05/30 04:01:19;;;;;;;22.13;12.70;;;13.70;55.60;;;;;;5043868;28;20475;-80
2021/05/30 04:03:46;;;;;;;23.30;13.80;;;13.70;55.10;;;;;;5048547;28;20446;-81
2021/05/30 04:06:14;;;;;;;23.07;13.10;;;13.80;55.70;;;;;;5048296;28;20497;-81
2021/05/30 04:08:41;;;;;;;27.80;13.87;;;13.90;55.80;;;;;;5048741;28;20501;-80
2021/05/30 04:11:09;;;;;;;30.97;14.80;;;13.90;55.70;;;;;;5048559;28;20454;-80
2021/05/30 04:13:37;;;;;;;25.00;13.43;;;13.90;55.30;;;;;;5048296;28;20435;-80
2021/05/30 04:16:05;;;;;;;22.80;13.20;;;13.90;55.30;;;;;;5048595;28;20458;-81
2021/05/30 04:18:33;;;;;;;26.63;13.93;;;13.90;55.90;;;;;;5048409;28;20530;-81
2021/05/30 04:21:00;;;;;;;24.50;13.73;;;13.80;56.50;;;;;;5051833;28;20434;-81
2021/05/30 04:23:31;;;;;;;27.23;13.70;;;13.90;56.30;;;;;;5052442;28;20442;-78
2021/05/30 04:25:58;;;;;;;27.60;13.87;;;14.00;57.50;;;;;;5052393;28;20470;-78
2021/05/30 04:28:26;;;;;;;26.90;14.37;;;14.10;56.60;;;;;;5053194;28;20473;-78
2021/05/30 04:30:53;;;;;;;27.90;14.00;;;14.20;57.00;;;;;;5052743;28;20533;-78
2021/05/30 04:33:21;;;;;;;25.13;13.07;;;14.20;57.30;;;;;;5052632;28;20549;-78
2021/05/30 04:35:49;;;;;;;29.63;14.80;;;14.20;57.60;;;;;;5053167;28;20439;-78
2021/05/30 04:38:17;;;;;;;35.67;14.37;;;14.40;57.70;;;;;;5053056;28;20530;-78
2021/05/30 04:40:45;;;;;;;25.27;14.33;;;14.50;57.80;;;;;;5052865;28;20435;-80
2021/05/30 04:43:13;;;;;;;24.40;13.20;;;14.40;57.50;;;;;;5051889;28;20532;-80
2021/05/30 04:45:40;;;;;;;28.07;14.07;;;14.40;58.70;;;;;;5052239;28;20477;-84
2021/05/30 04:48:08;;;;;;;27.90;14.50;;;14.50;57.90;;;;;;5052759;28;20426;-85
2021/05/30 04:50:37;;;;;;;36.27;14.33;;;14.60;58.20;;;;;;5051981;28;20548;-85
2021/05/30 04:53:05;;;;;;;29.43;14.57;;;14.70;58.20;;;;;;5053737;28;20446;-80
2021/05/30 04:55:33;;;;;;;29.17;14.63;;;14.80;58.20;;;;;;5051797;28;20446;-85
2021/05/30 04:58:02;;;;;;;31.23;15.80;;;14.70;58.10;;;;;;5050904;28;20454;-78
2021/05/30 05:00:30;;;;;;;33.47;15.57;;;14.80;58.10;;;;;;5052432;28;20435;-79
2021/05/30 05:02:58;;;;;;;43.83;15.83;;;14.80;58.90;;;;;;5054043;28;20445;-78
2021/05/30 05:05:28;;;;;;;47.57;16.63;;;14.80;58.00;;;;;;5054426;28;20488;-78
2021/05/30 05:07:56;;;;;;;29.43;14.77;;;14.90;59.60;;;;;;5055344;28;20446;-78
2021/05/30 05:10:25;;;;;;;38.37;16.27;;;15.00;59.70;;;;;;5055481;28;20470;-78
2021/05/30 05:12:52;;;;;;;39.23;16.67;;;15.20;59.30;;;;;;5054807;28;20409;-78
2021/05/30 05:15:20;;;;;;;32.43;15.70;;;15.20;58.30;;;;;;5053626;28;20495;-78
2021/05/30 05:17:47;;;;;;;41.70;16.40;;;15.00;59.20;;;;;;5049504;28;20493;-78
2021/05/30 05:20:15;;;;;;;38.53;15.40;;;15.10;59.80;;;;;;5051307;28;20451;-78
2021/05/30 05:22:43;;;;;;;34.20;16.33;;;15.20;60.30;;;;;;5052087;28;20572;-78
2021/05/30 05:25:12;;;;;;;38.53;17.57;;;15.30;59.60;;;;;;5051157;28;20478;-79
2021/05/30 05:27:40;;;;;;;38.23;15.57;;;15.50;59.60;;;;;;5050488;28;20474;-78
2021/05/30 05:30:09;;;;;;;40.27;16.13;;;15.50;59.20;;;;;;5051177;28;20447;-78
2021/05/30 05:32:37;;;;;;;33.63;17.20;;;15.60;59.20;;;;;;5051385;28;20474;-78
2021/05/30 05:35:05;;;;;;;33.90;17.90;;;15.70;59.10;;;;;;5041808;28;20444;-78
2021/05/30 05:37:34;;;;;;;41.33;17.90;;;15.70;58.90;;;;;;5032976;28;20427;-78
2021/05/30 05:40:01;;;;;;;42.50;19.90;;;15.50;58.60;;;;;;5033072;28;20435;-78
2021/05/30 05:42:30;;;;;;;38.50;17.43;;;15.20;59.90;;;;;;5032897;28;20447;-78
2021/05/30 05:44:57;;;;;;;34.00;16.80;;;15.30;60.70;;;;;;5033360;28;20517;-78
2021/05/30 05:47:25;;;;;;;40.83;20.20;;;15.40;60.60;;;;;;5034685;28;20514;-78
2021/05/30 05:49:52;;;;;;;38.97;19.00;;;15.40;58.50;;;;;;5033557;28;20427;-78
2021/05/30 05:52:20;;;;;;;40.57;20.23;;;15.30;59.50;;;;;;5032348;28;20519;-78
2021/05/30 05:54:48;;;;;;;40.00;19.50;;;15.30;60.10;;;;;;5032197;28;20497;-79
2021/05/30 05:57:16;;;;;;;37.63;19.43;;;15.20;59.60;;;;;;5031446;28;20447;-85
2021/05/30 05:59:44;;;;;;;37.27;17.53;;;15.20;60.60;;;;;;5030865;28;20455;-81
2021/05/30 06:02:13;;;;;;;33.00;18.70;;;15.40;60.30;;;;;;5029152;28;20525;-82
2021/05/30 06:04:43;;;;;;;32.30;17.37;;;15.60;60.40;;;;;;5028698;28;20459;-82
2021/05/30 06:07:14;;;;;;;35.03;17.87;;;15.60;60.80;;;;;;5029210;28;20467;-82
2021/05/30 06:09:41;;;;;;;37.67;19.23;;;15.80;59.90;;;;;;5028964;28;20444;-82
2021/05/30 06:12:10;;;;;;;32.20;18.50;;;15.90;59.60;;;;;;5028762;28;20529;-82
2021/05/30 06:14:37;;;;;;;30.57;17.23;;;16.00;59.20;;;;;;5029133;28;20443;-82
2021/05/30 06:17:06;;;;;;;36.00;18.27;;;16.10;59.00;;;;;;5028665;28;20487;-82
2021/05/30 06:19:34;;;;;;;31.17;17.50;;;16.10;59.00;;;;;;5030167;28;20515;-82
2021/05/30 06:22:02;;;;;;;31.60;18.10;;;16.20;58.80;;;;;;5029884;28;20463;-80
2021/05/30 06:24:30;;;;;;;28.30;16.77;;;16.30;57.80;;;;;;5029971;28;20445;-80
2021/05/30 06:26:59;;;;;;;27.87;17.07;;;16.10;59.30;;;;;;5028800;28;20471;-80
2021/05/30 06:29:29;;;;;;;30.03;16.80;;;16.00;58.90;;;;;;5028025;28;20457;-80
2021/05/30 06:31:57;;;;;;;30.40;15.93;;;15.80;59.90;;;;;;5026935;28;20475;-80
2021/05/30 06:34:25;;;;;;;27.50;15.80;;;16.00;59.90;;;;;;5029970;28;20444;-80
2021/05/30 06:36:53;;;;;;;32.70;17.37;;;16.20;58.80;;;;;;5030481;28;20450;-81
2021/05/30 06:39:21;;;;;;;24.67;15.40;;;16.00;58.40;;;;;;5030155;28;20455;-80
2021/05/30 06:41:48;;;;;;;27.43;16.80;;;16.00;58.70;;;;;;5029979;28;20521;-80
2021/05/30 06:44:16;;;;;;;23.07;14.33;;;15.90;59.90;;;;;;5029765;28;20443;-80
2021/05/30 06:46:47;;;;;;;22.67;14.80;;;16.20;59.50;;;;;;5029494;28;20574;-80
2021/05/30 06:49:15;;;;;;;25.23;15.43;;;16.40;59.20;;;;;;5029934;28;20460;-79
2021/05/30 06:51:43;;;;;;;24.97;15.00;;;16.40;58.10;;;;;;5030031;28;20444;-79
2021/05/30 06:54:11;;;;;;;23.33;14.40;;;16.30;58.40;;;;;;5030199;28;20432;-80
2021/05/30 06:56:39;;;;;;;26.83;15.60;;;16.20;58.80;;;;;;5029869;28;20474;-80
2021/05/30 06:59:06;;;;;;;27.13;16.20;;;16.30;58.20;;;;;;5029350;28;20509;-79
2021/05/30 07:01:34;;;;;;;30.37;15.63;;;16.20;57.80;;;;;;5029674;28;20484;-82
2021/05/30 07:04:02;;;;;;;37.47;21.30;;;16.30;59.10;;;;;;5029550;28;20432;-80
2021/05/30 07:06:29;;;;;;;30.00;17.17;;;16.50;58.70;;;;;;5029839;28;20471;-80
2021/05/30 07:08:58;;;;;;;29.37;17.37;;;16.50;57.70;;;;;;5029324;28;20535;-80
2021/05/30 07:11:25;;;;;;;30.27;17.93;;;16.40;58.40;;;;;;5029570;28;20440;-80
2021/05/30 07:13:53;;;;;;;26.67;15.20;;;16.20;58.10;;;;;;5029601;28;20432;-80
2021/05/30 07:16:20;;;;;;;23.73;14.53;;;16.30;58.20;;;;;;5029786;28;20491;-80
2021/05/30 07:18:48;;;;;;;25.90;16.70;;;16.50;58.40;;;;;;5029747;28;20454;-80
2021/05/30 07:21:15;;;;;;;26.37;15.77;;;16.70;58.20;;;;;;5029546;28;20497;-81
2021/05/30 07:23:43;;;;;;;25.47;15.30;;;16.50;58.00;;;;;;5025371;28;20478;-77
2021/05/30 07:26:23;;;;;;;23.30;14.70;;;16.60;59.00;;;;;;5023497;28;20482;-76
2021/05/30 07:28:51;;;;;;;25.97;15.13;;;16.80;58.70;;;;;;5024351;28;20526;-80
2021/05/30 07:31:18;;;;;;;25.47;15.50;;;17.00;57.80;;;;;;5019031;28;20451;-80
2021/05/30 07:33:46;;;;;;;24.60;15.23;;;16.80;57.30;;;;;;5021056;28;20439;-80
2021/05/30 07:36:16;;;;;;;32.07;16.80;;;16.70;57.20;;;;;;5025001;28;20440;-80
2021/05/30 07:38:43;;;;;;;30.23;17.67;;;16.50;57.70;;;;;;5034169;28;20459;-81
2021/05/30 07:41:13;;;;;;;25.27;15.37;;;16.60;57.30;;;;;;5023929;28;20497;-82
2021/05/30 07:43:47;;;;;;;28.47;15.17;;;16.50;59.20;;;;;;5023659;28;20554;-87
2021/05/30 07:46:15;;;;;;;30.87;15.20;;;16.70;58.90;;;;;;5025169;28;20439;-83
2021/05/30 07:48:42;;;;;;;28.37;16.30;;;17.00;58.90;;;;;;5024437;28;20453;-78
2021/05/30 07:51:10;;;;;;;28.60;16.20;;;17.30;58.40;;;;;;5024297;28;20451;-80
2021/05/30 07:53:38;;;;;;;32.80;18.03;;;17.40;56.60;;;;;;5024851;28;20435;-80
2021/05/30 07:56:05;;;;;;;39.30;17.47;;;17.20;56.70;;;;;;5025518;28;20443;-80
2021/05/30 07:58:36;;;;;;;38.50;18.73;;;17.20;58.40;;;;;;5017269;28;20463;-80
2021/05/30 08:01:06;;;;;;;33.97;18.07;;;16.80;57.10;;;;;;5028683;28;20443;-79
2021/05/30 08:03:33;;;;;;;32.93;18.13;;;16.70;58.90;;;;;;5028833;28;20513;-88
2021/05/30 08:06:01;;;;;;;28.30;16.10;;;16.80;58.80;;;;;;5028701;28;20551;-88
2021/05/30 08:08:32;;;;;;;36.73;17.50;;;17.10;59.70;;;;;;5027266;28;20463;-80
2021/05/30 08:10:59;;;;;;;29.60;16.07;;;17.40;58.20;;;;;;5026910;28;20431;-80
2021/05/30 08:13:27;;;;;;;33.53;16.93;;;17.60;58.40;;;;;;5026961;28;20443;-81
2021/05/30 08:16:04;;;;;;;31.27;16.20;;;17.60;58.00;;;;;;5027202;28;20470;-81
2021/05/30 08:18:35;;;;;;;22.70;13.60;;;17.60;57.00;;;;;;5027115;28;20443;-80
2021/05/30 08:21:05;;;;;;;29.03;14.37;;;17.30;58.10;;;;;;5027064;28;20451;-80
2021/05/30 08:23:34;;;;;;;28.27;15.03;;;17.40;58.00;;;;;;5028201;28;20435;-80
2021/05/30 08:26:06;;;;;;;24.97;15.63;;;17.40;57.50;;;;;;5028016;28;20470;-79
2021/05/30 08:28:33;;;;;;;29.27;15.77;;;17.20;57.70;;;;;;5027767;28;20471;-80
2021/05/30 08:31:05;;;;;;;28.33;16.40;;;17.20;57.60;;;;;;5028254;28;20439;-80
2021/05/30 08:33:38;;;;;;;22.50;14.03;;;17.40;58.10;;;;;;5028381;28;20494;-80
2021/05/30 08:36:06;;;;;;;27.40;15.03;;;17.60;58.70;;;;;;5027927;28;20443;-80
2021/05/30 08:38:33;;;;;;;31.87;16.10;;;17.80;57.40;;;;;;5027593;28;20450;-80
2021/05/30 08:41:03;;;;;;;27.17;15.07;;;18.10;58.50;;;;;;5027618;28;20439;-80
2021/05/30 08:43:32;;;;;;;26.10;14.77;;;18.30;57.20;;;;;;5027672;28;20435;-80
2021/05/30 08:46:00;;;;;;;22.07;14.17;;;18.20;57.20;;;;;;5027535;28;20449;-79
2021/05/30 08:48:29;;;;;;;22.50;14.30;;;18.30;57.80;;;;;;5027412;28;20485;-80
2021/05/30 08:51:03;;;;;;;28.80;15.27;;;18.60;57.20;;;;;;5027392;28;20585;-80
2021/05/30 08:53:31;;;;;;;23.43;13.40;;;18.70;56.30;;;;;;5027441;28;20442;-80
2021/05/30 08:56:02;;;;;;;28.10;14.37;;;18.70;56.10;;;;;;5027595;28;20451;-79
2021/05/30 08:58:36;;;;;;;25.00;13.27;;;18.90;56.40;;;;;;5027473;28;20470;-80
2021/05/30 09:01:08;;;;;;;29.57;14.67;;;19.10;55.60;;;;;;5027501;28;20475;-80
2021/05/30 09:03:55;;;;;;;22.10;13.20;;;19.10;55.30;;;;;;5027601;28;20494;-80
2021/05/30 09:06:25;;;;;;;23.87;13.80;;;19.10;55.30;;;;;;5027039;28;20466;-80
2021/05/30 09:08:54;;;;;;;22.27;13.33;;;19.40;56.20;;;;;;5027613;28;20478;-80
2021/05/30 09:11:45;;;;;;;24.47;13.37;;;19.70;56.10;;;;;;5027301;28;20403;-81
2021/05/30 09:14:21;;;;;;;20.80;13.30;;;20.00;54.00;;;;;;5027083;28;20448;-80
2021/05/30 09:16:54;;;;;;;21.17;12.33;;;19.90;54.40;;;;;;5027150;28;20405;-80
2021/05/30 09:22:40;;;;;;;27.57;13.90;;;20.30;54.40;;;;;;5017704;28;20501;-80
2021/05/30 09:25:15;;;;;;;26.50;15.97;;;20.10;53.10;;;;;;5027067;28;20440;-79
2021/05/30 09:27:58;;;;;;;30.27;19.23;;;20.10;53.20;;;;;;5026763;28;20576;-79
2021/05/30 09:30:32;;;;;;;24.80;14.73;;;20.40;54.90;;;;;;5026651;28;20521;-80
2021/05/30 09:33:03;;;;;;;18.17;12.33;;;20.90;54.40;;;;;;5044594;28;20455;-80
2021/05/30 09:35:53;;;;;;;21.60;13.00;;;21.40;53.00;;;;;;5042860;28;20542;-80
2021/05/30 09:38:27;;;;;;;19.70;11.13;;;21.40;51.40;;;;;;5026574;28;20491;-81
2021/05/30 09:40:56;;;;;;;19.30;13.17;;;21.50;52.40;;;;;;5026596;28;20487;-81
2021/05/30 09:43:24;;;;;;;19.93;12.80;;;21.40;51.10;;;;;;5026663;28;20427;-81
2021/05/30 09:46:11;;;;;;;20.10;13.30;;;21.30;50.40;;;;;;5026559;28;20421;-80
2021/05/30 09:48:43;;;;;;;19.30;12.27;;;21.40;51.80;;;;;;5029084;28;20494;-81
2021/05/30 09:51:32;;;;;;;20.37;11.20;;;21.70;51.20;;;;;;5029632;28;20428;-81
2021/05/30 09:54:03;;;;;;;21.30;12.27;;;22.10;52.30;;;;;;5029552;28;20451;-82
2021/05/30 09:56:32;;;;;;;23.23;14.90;;;22.60;51.60;;;;;;5030102;28;20472;-81
2021/05/30 09:59:02;;;;;;;18.93;12.33;;;22.60;49.40;;;;;;5030919;28;20394;-81
2021/05/30 10:01:45;;;;;;;15.43;11.07;;;22.60;50.40;;;;;;5026748;28;20414;-82
2021/05/30 10:04:16;;;;;;;19.60;10.97;;;22.80;49.90;;;;;;5026222;28;20471;-81
2021/05/30 10:06:44;;;;;;;21.70;14.57;;;23.00;50.00;;;;;;5026430;28;20456;-81
2021/05/30 10:09:12;;;;;;;14.97;10.97;;;23.40;50.50;;;;;;5026030;28;20450;-83
2021/05/30 10:11:40;;;;;;;14.40;9.83;;;23.70;50.50;;;;;;5026010;28;20406;-82
2021/05/30 10:14:08;;;;;;;17.03;9.37;;;24.00;49.40;;;;;;5026431;28;20458;-81
2021/05/30 10:16:35;;;;;;;17.27;10.30;;;24.30;49.00;;;;;;5026027;28;20434;-80
2021/05/30 10:19:07;;;;;;;13.30;9.50;;;24.50;47.90;;;;;;5025090;28;20497;-80
2021/05/30 10:21:37;;;;;;;13.40;9.43;;;24.50;47.80;;;;;;5025960;28;20485;-80
2021/05/30 10:24:06;;;;;;;20.47;10.00;;;24.80;48.10;;;;;;5025908;28;20482;-79
2021/05/30 10:26:44;;;;;;;10.37;8.03;;;25.10;46.70;;;;;;5025724;28;20439;-79
2021/05/30 10:29:13;;;;;;;17.10;9.13;;;25.20;47.10;;;;;;5025284;28;20532;-81
2021/05/30 10:31:41;;;;;;;11.33;8.43;;;25.60;47.70;;;;;;5026243;28;20508;-80
2021/05/30 10:34:17;;;;;;;18.67;9.60;;;25.70;46.10;;;;;;5025996;28;20426;-80
2021/05/30 10:37:02;;;;;;;12.50;9.07;;;26.00;45.20;;;;;;5025849;28;20426;-81
2021/05/30 10:39:34;;;;;;;15.60;10.17;;;26.00;43.80;;;;;;5025957;28;20462;-81
2021/05/30 10:42:09;;;;;;;10.57;9.17;;;25.80;43.50;;;;;;5026036;28;20439;-81
2021/05/30 10:45:05;;;;;;;14.63;9.00;;;25.80;43.60;;;;;;5025923;28;20482;-81
2021/05/30 10:48:09;;;;;;;12.90;8.67;;;26.00;44.70;;;;;;5001725;28;20588;-82
2021/05/30 10:50:37;;;;;;;16.13;8.07;;;26.30;44.60;;;;;;5025796;28;20478;-82
2021/05/30 10:53:05;;;;;;;15.00;8.73;;;26.70;44.60;;;;;;5025491;28;20497;-83
2021/05/30 10:55:36;;;;;;;10.57;7.37;;;27.10;43.30;;;;;;5025791;28;20417;-81
2021/05/30 10:58:12;;;;;;;12.37;7.60;;;27.50;43.10;;;;;;5024891;28;20431;-81
2021/05/30 11:00:40;;;;;;;9.20;6.90;;;27.80;41.60;;;;;;5025292;28;20513;-82
2021/05/30 11:03:12;;;;;;;9.73;6.33;;;28.00;42.00;;;;;;5025480;28;20431;-81
2021/05/30 11:05:45;;;;;;;11.07;7.10;;;28.30;42.00;;;;;;5025359;28;20467;-82
2021/05/30 11:08:56;;;;;;;10.87;7.07;;;28.40;41.20;;;;;;5025321;28;20503;-80
2021/05/30 11:11:25;;;;;;;9.33;6.43;;;28.70;40.70;;;;;;4983620;28;20497;-82
2021/05/30 11:13:54;;;;;;;8.40;6.87;;;28.90;40.50;;;;;;4983374;28;20544;-85
2021/05/30 11:16:22;;;;;;;7.43;6.73;;;29.20;40.10;;;;;;5005777;28;20470;-83
2021/05/30 11:18:56;;;;;;;16.83;8.20;;;30.00;38.70;;;;;;5024678;28;20435;-83
2021/05/30 11:21:28;;;;;;;12.57;7.13;;;31.60;37.10;;;;;;5024777;28;20431;-83
2021/05/30 11:23:57;;;;;;;8.10;7.13;;;32.40;35.40;;;;;;5024599;28;20493;-83
2021/05/30 11:26:25;;;;;;;8.30;6.77;;;33.10;34.80;;;;;;5024883;28;20462;-83
2021/05/30 11:28:53;;;;;;;9.00;6.30;;;34.30;33.20;;;;;;5024564;28;20439;-85
2021/05/30 11:31:21;;;;;;;10.27;5.63;;;35.30;30.60;;;;;;5024946;28;20494;-86
2021/05/30 11:33:54;;;;;;;6.63;5.97;;;36.00;29.90;;;;;;5024694;28;20439;-86
2021/05/30 11:36:32;;;;;;;6.37;5.60;;;36.70;29.20;;;;;;5024374;28;20436;-83
2021/05/30 11:39:06;;;;;;;8.40;6.40;;;37.00;28.20;;;;;;5024166;28;20484;-83
2021/05/30 11:41:35;;;;;;;6.63;5.00;;;36.90;27.90;;;;;;5024634;28;20442;-83
2021/05/30 11:44:07;;;;;;;5.47;4.97;;;37.50;28.40;;;;;;5024609;28;20554;-83
2021/05/30 11:46:36;;;;;;;4.17;3.77;;;38.30;26.90;;;;;;5024494;28;20443;-84
2021/05/30 11:49:09;;;;;;;4.50;4.10;;;38.60;26.80;;;;;;5024625;28;20439;-84
2021/05/30 11:52:04;;;;;;;5.20;4.70;;;38.70;27.10;;;;;;5024532;28;20447;-84
2021/05/30 11:54:33;;;;;;;8.27;5.00;;;39.10;26.10;;;;;;5024475;28;20486;-84
2021/05/30 11:57:02;;;;;;;7.93;5.97;;;39.20;26.20;;;;;;5024078;28;20423;-84
2021/05/30 11:59:38;;;;;;;7.97;4.40;;;38.80;25.20;;;;;;5024796;28;20562;-84
2021/05/30 12:02:06;;;;;;;6.10;4.77;;;39.10;26.20;;;;;;5024323;28;20463;-84
2021/05/30 12:04:37;;;;;;;8.13;3.90;;;38.80;26.00;;;;;;5024242;28;20442;-84
2021/05/30 12:07:08;;;;;;;8.13;5.47;;;39.10;25.50;;;;;;5024196;28;20457;-85
2021/05/30 12:09:43;;;;;;;7.40;5.00;;;38.90;25.20;;;;;;5023484;28;20443;-84
2021/05/30 12:12:25;;;;;;;9.23;5.00;;;38.60;25.40;;;;;;5029842;28;20490;-86
2021/05/30 12:14:52;;;;;;;6.80;4.80;;;38.20;26.00;;;;;;5020535;28;20475;-76
2021/05/30 12:17:20;;;;;;;9.70;5.30;;;38.90;25.70;;;;;;5028261;28;20443;-76
2021/05/30 12:19:48;;;;;;;7.50;5.27;;;36.80;26.90;;;;;;5033915;28;20502;-80
2021/05/30 12:22:22;;;;;;;17.53;4.97;;;34.00;29.90;;;;;;5038657;28;20461;-80
2021/05/30 12:24:49;;;;;;;12.43;5.70;;;34.20;29.10;;;;;;5024507;28;20463;-80
2021/05/30 12:27:20;;;;;;;18.77;4.90;;;34.50;28.40;;;;;;5028734;28;20535;-76
2021/05/30 12:29:49;;;;;;;8.50;4.43;;;34.20;28.60;;;;;;5025540;28;20451;-80
2021/05/30 12:32:16;;;;;;;7.47;5.70;;;33.90;29.20;;;;;;5032157;28;20448;-78
2021/05/30 12:34:44;;;;;;;13.67;5.70;;;31.50;31.60;;;;;;5025221;28;20447;-75
2021/05/30 12:37:11;;;;;;;8.97;4.80;;;31.30;33.40;;;;;;5035571;28;20491;-75
2021/05/30 12:39:39;;;;;;;10.70;4.83;;;31.80;32.90;;;;;;5038359;28;20483;-77
2021/05/30 12:42:08;;;;;;;12.57;4.10;;;32.40;30.80;;;;;;5042491;28;20483;-82
2021/05/30 12:44:37;;;;;;;9.77;4.50;;;32.30;31.60;;;;;;5039864;28;20443;-82
2021/05/30 12:47:09;;;;;;;12.10;3.77;;;32.60;30.80;;;;;;5039075;28;20526;-82